Aérodrome :
LOGIN :

S'inscrire | Disclaimer

   EN    FR    IT 

 










Légende :    VFR   VFR Marginal   IFR   IFR Intensif   IFR Très Intensif
Visi : 
Plafond : 
>= 8 km
>= 3000ft
5 à 8 km
1000 à 3000 ft
1500m à 5 km
500 à 1000 ft
800 à 1500m
200 à 500 ft
< 800m
< 200 ft
Symboles :   Orages  Brouillard  Fortes neiges  Fortes précipitations  Vent > 20 kt
SIGMETs :   Divers  Orages  Givrage  Turbulence  Onde Orograph.  Cendres Volcan.







- Altitude de l'aérodrome : 184 ft
- Code IATA : BRU


EBBR - Bruxelles

DERNIER METAR :
  • 131250Z 22010KT 9999 -RA BKN010 06/05 Q0999 NOSIG

METARs EXPIRÉS :
  • 131220Z 22013KT 9999 -RA BKN010 06/04 Q1000 NOSIG
  • 131150Z 21016KT 9999 -RA BKN010 06/04 Q1000 NOSIG
  • 131120Z 21018KT 9999 -RA BKN010 06/04 Q1000 NOSIG
  • 131050Z 21016KT 9999 -RA FEW008 BKN010 05/04 Q1000 NOSIG
  • 131020Z 21018KT 6000 FEW005 BKN010 05/03 Q1001 RERA NOSIG

TAF TAF EBBR
Valide du 13 à 12h jusqu'au 14 à 18h UTC


131115Z 1312/1418 22013KT 8000 -RA SCT006 BKN012
TEMPO 1315/1318 22016G28KT
TEMPO 1312/1320 3000 RA SHRA BKN007 BKN012TCU
BECMG 1318/1320 26013KT 9999 SCT020
TEMPO 1323/1402 27018G30KT 3000 SHRASN BKN006 BKN014CB
TEMPO 1407/1418 24015G25KT 3000 SHRA SHRASN BKN006 BKN014CB
Pas de NOTAMs connus pour ce terrain.



MET'MAP, la Météo Aéronautique d'un coup d'oeil ! - Copyright ORBIFLY Décembre 2007 - Disclaimer

ORBIFLY MET'MAP TEAM :

Programmation & Développement : Alexandra Zaïnal
Conception & Développement : Baudouin d'Aumeries
Co-Programmation & Développement : Marc-Olivier Méhu
Soutien technique & logistique : Manuel Goepfert

Contact : metmap@orbifly.com




SOURCES & CREDITS :

   NOAA